Time;durP1;ratioP1;P1;durP2;ratioP2;P2;SDS_P1;SDS_P2;PMS_P1;PMS_P2;Temp;Humidity;BMP_temperature;BMP_pressure;BME280_temperature;BME280_humidity;BME280_pressure;Samples;Min_cycle;Max_cycle;Signal;HPM_P1;HPM_P2
2021/07/29 00:02:27;;;;;;;6.75;4.65;;;;;;;;;;5015519;28;20068;-62
2021/07/29 00:04:52;;;;;;;7.13;4.20;;;;;;;;;;5010379;28;20034;-61
2021/07/29 00:07:18;;;;;;;6.50;4.80;;;;;;;;;;5008429;28;20273;-62
2021/07/29 00:09:47;;;;;;;8.15;4.30;;;;;;;;;;5008393;28;20030;-61
2021/07/29 00:12:13;;;;;;;6.18;4.50;;;;;;;;;;5008773;28;20092;-61
2021/07/29 00:14:39;;;;;;;6.57;4.30;;;;;;;;;;5007638;28;20025;-62
2021/07/29 00:17:09;;;;;;;7.00;4.95;;;;;;;;;;5007773;28;20034;-61
2021/07/29 00:19:35;;;;;;;8.40;4.70;;;;;;;;;;5007433;28;20048;-61
2021/07/29 00:22:00;;;;;;;7.40;4.80;;;;;;;;;;5008081;28;20509;-61
2021/07/29 00:24:26;;;;;;;7.40;4.70;;;;;;;;;;5009282;28;20026;-62
2021/07/29 00:26:52;;;;;;;7.35;4.63;;;;;;;;;;4992392;28;20057;-61
2021/07/29 00:29:17;;;;;;;7.65;4.47;;;;;;;;;;5008541;28;20080;-62
2021/07/29 00:31:43;;;;;;;6.97;4.90;;;;;;;;;;5007429;28;20426;-61
2021/07/29 00:34:09;;;;;;;9.43;5.07;;;;;;;;;;5010390;28;20076;-61
2021/07/29 00:36:34;;;;;;;7.72;4.32;;;;;;;;;;5008146;28;20484;-61
2021/07/29 00:39:00;;;;;;;7.93;4.82;;;;;;;;;;5007959;28;20079;-60
2021/07/29 00:41:26;;;;;;;8.07;4.53;;;;;;;;;;5007368;28;20534;-62
2021/07/29 00:43:59;;;;;;;9.57;4.75;;;;;;;;;;5006949;28;20026;-61
2021/07/29 00:46:24;;;;;;;7.63;4.55;;;;;;;;;;5007229;28;20133;-61
2021/07/29 00:48:51;;;;;;;7.88;4.60;;;;;;;;;;5008840;28;20219;-61
2021/07/29 00:51:17;;;;;;;6.00;4.03;;;;;;;;;;5007601;28;20079;-62
2021/07/29 00:53:43;;;;;;;8.23;4.63;;;;;;;;;;4991321;28;20034;-61
2021/07/29 00:56:08;;;;;;;7.07;4.53;;;;;;;;;;4991234;28;20033;-61
2021/07/29 00:58:34;;;;;;;5.85;4.10;;;;;;;;;;5005937;28;20029;-61
2021/07/29 01:00:59;;;;;;;11.73;4.30;;;;;;;;;;5009640;28;20139;-61
2021/07/29 01:03:25;;;;;;;5.47;3.85;;;;;;;;;;5007868;28;20508;-61
2021/07/29 01:05:50;;;;;;;8.45;4.60;;;;;;;;;;4989055;28;20041;-61
2021/07/29 01:08:16;;;;;;;5.25;3.92;;;;;;;;;;5008368;28;20405;-61
2021/07/29 01:10:41;;;;;;;5.80;4.13;;;;;;;;;;4991332;28;20030;-61
2021/07/29 01:13:07;;;;;;;6.30;4.28;;;;;;;;;;5007116;28;20022;-61
2021/07/29 01:15:32;;;;;;;5.75;4.10;;;;;;;;;;5009052;28;20064;-61
2021/07/29 01:18:00;;;;;;;6.65;4.57;;;;;;;;;;4989769;28;20101;-61
2021/07/29 01:20:26;;;;;;;6.35;4.10;;;;;;;;;;5007521;28;20117;-61
2021/07/29 01:22:52;;;;;;;6.68;3.92;;;;;;;;;;5007136;28;20021;-61
2021/07/29 01:25:17;;;;;;;4.68;3.70;;;;;;;;;;5007803;28;20481;-61
2021/07/29 01:27:43;;;;;;;8.52;3.72;;;;;;;;;;5007940;28;20463;-61
2021/07/29 01:30:09;;;;;;;8.02;3.60;;;;;;;;;;5008538;28;20037;-61
2021/07/29 01:32:36;;;;;;;7.30;3.78;;;;;;;;;;4988360;28;20021;-61
2021/07/29 01:35:02;;;;;;;6.88;3.47;;;;;;;;;;5011139;28;20087;-61
2021/07/29 01:37:28;;;;;;;5.78;3.63;;;;;;;;;;5006738;28;20044;-61
2021/07/29 01:39:53;;;;;;;6.00;4.40;;;;;;;;;;5008175;28;20029;-61
2021/07/29 01:42:19;;;;;;;4.95;3.80;;;;;;;;;;5006533;28;20030;-61
2021/07/29 01:44:44;;;;;;;6.25;4.28;;;;;;;;;;5006511;28;20492;-61
2021/07/29 01:47:10;;;;;;;6.78;3.55;;;;;;;;;;5007628;28;20054;-61
2021/07/29 01:49:35;;;;;;;6.13;4.07;;;;;;;;;;5005292;28;20025;-61
2021/07/29 01:52:01;;;;;;;5.45;4.10;;;;;;;;;;4987185;28;20026;-61
2021/07/29 01:54:26;;;;;;;7.28;4.20;;;;;;;;;;5008095;28;20054;-61
2021/07/29 01:56:52;;;;;;;6.57;4.00;;;;;;;;;;5008528;28;20056;-61
2021/07/29 01:59:17;;;;;;;5.50;4.22;;;;;;;;;;5007096;28;20393;-61
2021/07/29 02:01:44;;;;;;;6.80;4.50;;;;;;;;;;5007560;28;20113;-61
2021/07/29 02:04:10;;;;;;;6.70;4.93;;;;;;;;;;5006989;28;20433;-61
2021/07/29 02:06:37;;;;;;;7.85;4.90;;;;;;;;;;4989011;28;20030;-61
2021/07/29 02:09:03;;;;;;;5.30;4.30;;;;;;;;;;5006224;28;20378;-61
2021/07/29 02:11:31;;;;;;;5.90;4.18;;;;;;;;;;4974435;28;20480;-61
2021/07/29 02:13:57;;;;;;;6.00;4.07;;;;;;;;;;5001302;28;20117;-61
2021/07/29 02:16:23;;;;;;;5.80;4.43;;;;;;;;;;5005552;28;20030;-61
2021/07/29 02:18:48;;;;;;;6.63;4.28;;;;;;;;;;5002186;28;20029;-61
2021/07/29 02:21:14;;;;;;;6.53;4.18;;;;;;;;;;5010799;28;20522;-61
2021/07/29 02:23:39;;;;;;;6.03;4.30;;;;;;;;;;5010831;28;20041;-61
2021/07/29 02:26:05;;;;;;;6.97;4.93;;;;;;;;;;5010365;28;20076;-61
2021/07/29 02:28:30;;;;;;;5.25;4.10;;;;;;;;;;5010098;28;20084;-61
2021/07/29 02:30:56;;;;;;;6.18;4.18;;;;;;;;;;5011241;28;20084;-61
2021/07/29 02:33:22;;;;;;;5.88;4.50;;;;;;;;;;5010414;28;20025;-61
2021/07/29 02:35:48;;;;;;;6.07;4.38;;;;;;;;;;5009960;28;20057;-61
2021/07/29 02:38:14;;;;;;;7.35;4.50;;;;;;;;;;5010151;28;20048;-61
2021/07/29 02:40:40;;;;;;;9.10;4.50;;;;;;;;;;5010106;28;20026;-61
2021/07/29 02:43:05;;;;;;;6.50;4.45;;;;;;;;;;4993414;28;20477;-61
2021/07/29 02:45:31;;;;;;;5.93;4.40;;;;;;;;;;5010591;28;20124;-61
2021/07/29 02:47:56;;;;;;;5.65;4.32;;;;;;;;;;5011655;28;20022;-61
2021/07/29 02:50:21;;;;;;;7.03;4.30;;;;;;;;;;5007472;28;20030;-61
2021/07/29 02:52:47;;;;;;;5.60;4.13;;;;;;;;;;5008398;28;20546;-61
2021/07/29 02:55:12;;;;;;;7.72;4.40;;;;;;;;;;5010853;28;20648;-61
2021/07/29 02:57:38;;;;;;;6.60;4.78;;;;;;;;;;5010512;28;20030;-61
2021/07/29 03:00:04;;;;;;;6.20;4.38;;;;;;;;;;5011375;28;20022;-61
2021/07/29 03:02:29;;;;;;;8.65;4.78;;;;;;;;;;5010215;28;20037;-61
2021/07/29 03:04:55;;;;;;;6.95;4.65;;;;;;;;;;5011506;28;20344;-61
2021/07/29 03:07:20;;;;;;;6.95;5.10;;;;;;;;;;5010586;28;20057;-61
2021/07/29 03:09:46;;;;;;;6.10;4.45;;;;;;;;;;5009459;28;20030;-61
2021/07/29 03:12:11;;;;;;;7.75;4.50;;;;;;;;;;5009862;28;20029;-61
2021/07/29 03:14:37;;;;;;;7.45;4.85;;;;;;;;;;5009194;28;20032;-61
2021/07/29 03:17:02;;;;;;;6.32;4.50;;;;;;;;;;5005003;28;20563;-61
2021/07/29 03:19:29;;;;;;;6.40;4.72;;;;;;;;;;5010247;28;20030;-61
2021/07/29 03:21:54;;;;;;;5.85;4.43;;;;;;;;;;4991709;28;20099;-61
2021/07/29 03:24:20;;;;;;;6.07;4.47;;;;;;;;;;5009813;28;20034;-61
2021/07/29 03:26:45;;;;;;;8.02;4.85;;;;;;;;;;5011105;28;20839;-61
2021/07/29 03:29:11;;;;;;;6.78;5.13;;;;;;;;;;5009606;28;20030;-61
2021/07/29 03:31:36;;;;;;;7.35;5.57;;;;;;;;;;5009967;28;20473;-61
2021/07/29 03:34:01;;;;;;;9.10;5.03;;;;;;;;;;5010899;28;20405;-61
2021/07/29 03:36:27;;;;;;;10.57;6.18;;;;;;;;;;5009037;28;20033;-61
2021/07/29 03:38:52;;;;;;;7.68;5.53;;;;;;;;;;4991700;28;20040;-61
2021/07/29 03:41:18;;;;;;;8.68;4.75;;;;;;;;;;5009209;28;20045;-62
2021/07/29 03:43:43;;;;;;;7.38;4.88;;;;;;;;;;5008042;28;20091;-61
2021/07/29 03:46:09;;;;;;;6.95;5.00;;;;;;;;;;5010356;28;20045;-61
2021/07/29 03:48:35;;;;;;;7.28;5.00;;;;;;;;;;5006485;28;20029;-61
2021/07/29 03:51:00;;;;;;;11.90;7.10;;;;;;;;;;5007980;28;20025;-61
2021/07/29 03:53:26;;;;;;;7.25;5.15;;;;;;;;;;5007904;28;20029;-61
2021/07/29 03:55:51;;;;;;;7.30;5.15;;;;;;;;;;5010347;28;20038;-60
2021/07/29 03:58:17;;;;;;;7.93;4.40;;;;;;;;;;5008491;28;20065;-60
2021/07/29 04:00:42;;;;;;;5.80;4.63;;;;;;;;;;5006606;28;20475;-60
2021/07/29 04:03:07;;;;;;;7.07;4.38;;;;;;;;;;5009242;28;20037;-60
2021/07/29 04:05:34;;;;;;;8.35;5.20;;;;;;;;;;5008374;28;20029;-60
2021/07/29 04:07:59;;;;;;;6.95;5.22;;;;;;;;;;4992773;28;20025;-60
2021/07/29 04:10:24;;;;;;;9.10;5.10;;;;;;;;;;5008849;28;20346;-60
2021/07/29 04:12:50;;;;;;;7.57;4.97;;;;;;;;;;5008607;28;20452;-60
2021/07/29 04:15:15;;;;;;;12.98;6.28;;;;;;;;;;5007511;28;20083;-60
2021/07/29 04:17:41;;;;;;;10.70;5.72;;;;;;;;;;5009842;28;20037;-60
2021/07/29 04:20:09;;;;;;;7.28;4.82;;;;;;;;;;5009743;28;20021;-59
2021/07/29 04:22:34;;;;;;;5.78;4.38;;;;;;;;;;5008439;28;20026;-60
2021/07/29 04:25:00;;;;;;;8.13;5.35;;;;;;;;;;5010302;28;20384;-60
2021/07/29 04:27:26;;;;;;;10.95;6.03;;;;;;;;;;5009659;28;20116;-60
2021/07/29 04:29:52;;;;;;;11.55;6.68;;;;;;;;;;5008012;28;20026;-60
2021/07/29 04:32:20;;;;;;;10.73;5.00;;;;;;;;;;5007765;28;20053;-60
2021/07/29 04:34:45;;;;;;;5.25;4.20;;;;;;;;;;5007640;28;20038;-60
2021/07/29 04:37:12;;;;;;;7.32;4.57;;;;;;;;;;5007759;28;20512;-60
2021/07/29 04:39:41;;;;;;;14.93;8.77;;;;;;;;;;5009696;28;20037;-60
2021/07/29 04:42:07;;;;;;;10.43;5.80;;;;;;;;;;5008122;28;20456;-60
2021/07/29 04:44:32;;;;;;;8.60;5.10;;;;;;;;;;5007403;28;20140;-60
2021/07/29 04:46:58;;;;;;;7.70;4.40;;;;;;;;;;5008361;28;20404;-60
2021/07/29 04:49:23;;;;;;;4.82;3.95;;;;;;;;;;5005806;28;20049;-60
2021/07/29 04:51:48;;;;;;;7.53;5.18;;;;;;;;;;5008262;28;20025;-60
2021/07/29 04:54:14;;;;;;;8.05;4.50;;;;;;;;;;5010073;28;20026;-60
2021/07/29 04:56:40;;;;;;;8.65;5.35;;;;;;;;;;5009070;28;20054;-60
2021/07/29 04:59:05;;;;;;;6.40;4.32;;;;;;;;;;5007985;28;20526;-60
2021/07/29 05:01:30;;;;;;;8.68;4.60;;;;;;;;;;5008829;28;20030;-60
2021/07/29 05:04:00;;;;;;;8.52;5.50;;;;;;;;;;5008323;28;20439;-60
2021/07/29 05:06:26;;;;;;;10.27;6.15;;;;;;;;;;5008870;28;20038;-60
2021/07/29 05:08:51;;;;;;;6.55;3.85;;;;;;;;;;5008962;28;20034;-60
2021/07/29 05:11:17;;;;;;;6.90;3.75;;;;;;;;;;5008116;28;20026;-60
2021/07/29 05:13:42;;;;;;;5.03;3.42;;;;;;;;;;5007919;28;20030;-60
2021/07/29 05:16:08;;;;;;;5.32;3.83;;;;;;;;;;5008901;28;20022;-60
2021/07/29 05:18:34;;;;;;;6.50;4.07;;;;;;;;;;5007229;28;20040;-60
2021/07/29 05:21:09;;;;;;;6.47;3.63;;;;;;;;;;5007458;28;20460;-60
2021/07/29 05:23:35;;;;;;;6.88;3.28;;;;;;;;;;5007755;28;20419;-60
2021/07/29 05:26:01;;;;;;;8.38;3.88;;;;;;;;;;5009648;28;20037;-60
2021/07/29 05:28:26;;;;;;;6.72;4.32;;;;;;;;;;5008212;28;20059;-60
2021/07/29 05:30:52;;;;;;;6.70;4.35;;;;;;;;;;5008476;28;20095;-60
2021/07/29 05:33:18;;;;;;;8.25;3.90;;;;;;;;;;5007691;28;20044;-60
2021/07/29 05:35:44;;;;;;;5.60;3.60;;;;;;;;;;5007046;28;20045;-60
2021/07/29 05:38:09;;;;;;;4.80;3.65;;;;;;;;;;5007416;28;20409;-60
2021/07/29 05:40:35;;;;;;;5.10;3.50;;;;;;;;;;4990115;28;20065;-60
2021/07/29 05:43:01;;;;;;;7.35;3.55;;;;;;;;;;5007176;28;20021;-60
2021/07/29 05:45:31;;;;;;;5.55;3.65;;;;;;;;;;5007911;28;20475;-60
2021/07/29 05:47:57;;;;;;;6.43;3.33;;;;;;;;;;5007118;28;20091;-60
2021/07/29 05:50:23;;;;;;;4.85;3.67;;;;;;;;;;4990540;28;20484;-60
2021/07/29 05:52:49;;;;;;;7.15;3.78;;;;;;;;;;5008465;28;20104;-60
2021/07/29 05:55:15;;;;;;;4.85;3.67;;;;;;;;;;5007950;28;20022;-60
2021/07/29 05:57:40;;;;;;;4.28;3.38;;;;;;;;;;4989313;28;20508;-60
2021/07/29 06:00:06;;;;;;;4.88;3.40;;;;;;;;;;5006794;28;20450;-60
2021/07/29 06:02:32;;;;;;;3.65;3.20;;;;;;;;;;5007031;28;20052;-59
2021/07/29 06:04:58;;;;;;;4.43;3.47;;;;;;;;;;5007917;28;20025;-60
2021/07/29 06:07:24;;;;;;;5.15;3.25;;;;;;;;;;5008231;28;20432;-60
2021/07/29 06:09:50;;;;;;;4.07;3.13;;;;;;;;;;5006131;28;20056;-61
2021/07/29 06:12:17;;;;;;;4.57;3.72;;;;;;;;;;5007261;28;20033;-60
2021/07/29 06:14:42;;;;;;;4.65;3.42;;;;;;;;;;5007509;28;20049;-61
2021/07/29 06:17:08;;;;;;;5.03;3.20;;;;;;;;;;4987866;28;20030;-60
2021/07/29 06:19:33;;;;;;;7.22;3.78;;;;;;;;;;5006004;28;20087;-60
2021/07/29 06:22:00;;;;;;;4.57;3.38;;;;;;;;;;5008555;28;20029;-60
2021/07/29 06:24:26;;;;;;;4.15;3.38;;;;;;;;;;5008165;28;20046;-60
2021/07/29 06:26:52;;;;;;;3.97;3.05;;;;;;;;;;5005847;28;20108;-60
2021/07/29 06:29:18;;;;;;;3.80;3.28;;;;;;;;;;5006309;28;20084;-61
2021/07/29 06:31:44;;;;;;;5.03;3.20;;;;;;;;;;5008163;28;20038;-60
2021/07/29 06:34:10;;;;;;;4.85;3.10;;;;;;;;;;5007446;28;20021;-60
2021/07/29 06:36:35;;;;;;;3.80;2.97;;;;;;;;;;5008460;28;20080;-60
2021/07/29 06:39:00;;;;;;;5.38;3.38;;;;;;;;;;5007980;28;20076;-60
2021/07/29 06:41:27;;;;;;;4.30;3.28;;;;;;;;;;5006071;28;20037;-60
2021/07/29 06:43:52;;;;;;;5.00;3.83;;;;;;;;;;5006396;28;20113;-60
2021/07/29 06:46:18;;;;;;;6.63;3.50;;;;;;;;;;4974711;28;20148;-61
2021/07/29 06:48:43;;;;;;;4.53;3.05;;;;;;;;;;5007964;28;20036;-60
2021/07/29 06:51:10;;;;;;;4.80;3.20;;;;;;;;;;5008602;28;20029;-60
2021/07/29 06:53:36;;;;;;;5.50;3.35;;;;;;;;;;5008748;28;20506;-60
2021/07/29 06:56:03;;;;;;;6.05;3.38;;;;;;;;;;4990939;28;20033;-60
2021/07/29 06:58:28;;;;;;;4.65;3.28;;;;;;;;;;5006042;28;20040;-60
2021/07/29 07:00:54;;;;;;;4.35;3.53;;;;;;;;;;5006196;28;20408;-60
2021/07/29 07:03:20;;;;;;;6.15;3.58;;;;;;;;;;5008109;28;20061;-60
2021/07/29 07:05:46;;;;;;;5.03;3.70;;;;;;;;;;4992658;28;20400;-61
2021/07/29 07:08:12;;;;;;;4.80;3.70;;;;;;;;;;5010521;28;20525;-60
2021/07/29 07:10:38;;;;;;;5.65;3.70;;;;;;;;;;5012287;28;20471;-60
2021/07/29 07:13:04;;;;;;;5.95;3.42;;;;;;;;;;5010183;28;20022;-60
2021/07/29 07:15:29;;;;;;;6.03;3.40;;;;;;;;;;5009924;28;20025;-60
2021/07/29 07:17:55;;;;;;;6.35;4.15;;;;;;;;;;4994530;28;20077;-60
2021/07/29 07:20:21;;;;;;;4.50;3.67;;;;;;;;;;5011863;28;20037;-60
2021/07/29 07:22:47;;;;;;;4.78;3.67;;;;;;;;;;4981269;28;20033;-61
2021/07/29 07:25:12;;;;;;;5.72;3.20;;;;;;;;;;5012283;28;20377;-60
2021/07/29 07:27:38;;;;;;;4.93;3.50;;;;;;;;;;5011441;28;20136;-60
2021/07/29 07:30:04;;;;;;;4.50;3.33;;;;;;;;;;5010844;28;20033;-60
2021/07/29 07:32:29;;;;;;;5.28;3.50;;;;;;;;;;5009254;28;20048;-62
2021/07/29 07:34:55;;;;;;;10.35;4.30;;;;;;;;;;5010862;28;20028;-61
2021/07/29 07:37:20;;;;;;;5.60;4.25;;;;;;;;;;4994206;28;20065;-60
2021/07/29 07:39:47;;;;;;;7.57;4.32;;;;;;;;;;5009413;28;20026;-60
2021/07/29 07:42:12;;;;;;;6.93;4.20;;;;;;;;;;5010406;28;20058;-60
2021/07/29 07:44:38;;;;;;;6.82;4.47;;;;;;;;;;5011075;28;20133;-60
2021/07/29 07:47:03;;;;;;;5.28;3.90;;;;;;;;;;4992620;28;20033;-60
2021/07/29 07:49:29;;;;;;;9.73;4.13;;;;;;;;;;5009961;28;20044;-62
2021/07/29 07:51:54;;;;;;;5.80;3.60;;;;;;;;;;5011504;28;20170;-60
2021/07/29 07:54:20;;;;;;;7.15;3.60;;;;;;;;;;5009940;28;20124;-61
2021/07/29 07:56:45;;;;;;;5.05;3.60;;;;;;;;;;4992041;28;20080;-60
2021/07/29 07:59:11;;;;;;;5.95;4.05;;;;;;;;;;5009946;28;20033;-61
2021/07/29 08:01:38;;;;;;;7.03;3.42;;;;;;;;;;5011173;28;20302;-60
2021/07/29 08:04:04;;;;;;;6.60;3.63;;;;;;;;;;5009821;28;20511;-62
2021/07/29 08:06:30;;;;;;;5.82;3.38;;;;;;;;;;5009717;28;20041;-60
2021/07/29 08:08:55;;;;;;;8.80;3.70;;;;;;;;;;5009731;28;20037;-60
2021/07/29 08:11:21;;;;;;;6.05;3.78;;;;;;;;;;5009379;28;20491;-60
2021/07/29 08:13:46;;;;;;;6.70;3.85;;;;;;;;;;5009084;28;20022;-60
2021/07/29 08:16:12;;;;;;;5.30;3.38;;;;;;;;;;5009634;28;20030;-60
2021/07/29 08:18:37;;;;;;;4.65;3.65;;;;;;;;;;5009980;28;20025;-59
2021/07/29 08:21:12;;;;;;;5.13;3.50;;;;;;;;;;5009747;28;20125;-61
2021/07/29 08:23:39;;;;;;;7.82;3.67;;;;;;;;;;4993779;28;20144;-61
2021/07/29 08:26:05;;;;;;;6.68;3.50;;;;;;;;;;5008582;28;20033;-60
2021/07/29 08:28:31;;;;;;;5.93;3.85;;;;;;;;;;5008294;28;20061;-61
2021/07/29 08:30:57;;;;;;;8.52;4.70;;;;;;;;;;4992913;28;20740;-61
2021/07/29 08:33:22;;;;;;;7.13;4.70;;;;;;;;;;5009308;28;20038;-60
2021/07/29 08:35:48;;;;;;;5.60;4.05;;;;;;;;;;5009430;28;20029;-61
2021/07/29 08:38:13;;;;;;;6.22;4.13;;;;;;;;;;5008238;28;20041;-60
2021/07/29 08:40:39;;;;;;;6.15;4.22;;;;;;;;;;4990309;28;20034;-61
2021/07/29 08:43:05;;;;;;;6.13;3.58;;;;;;;;;;5007657;28;20121;-61
2021/07/29 08:45:31;;;;;;;9.02;3.95;;;;;;;;;;4992963;28;20048;-60
2021/07/29 08:47:57;;;;;;;6.38;3.85;;;;;;;;;;4996518;28;20072;-60
2021/07/29 08:50:23;;;;;;;6.45;4.38;;;;;;;;;;4992043;28;20177;-61
2021/07/29 08:52:52;;;;;;;6.63;4.55;;;;;;;;;;5001943;28;20405;-61
2021/07/29 08:55:18;;;;;;;7.20;4.07;;;;;;;;;;4992062;28;20037;-61
2021/07/29 08:57:44;;;;;;;10.27;4.20;;;;;;;;;;5008317;28;20037;-62
2021/07/29 09:00:12;;;;;;;8.32;4.20;;;;;;;;;;5006718;28;20111;-60
2021/07/29 09:02:37;;;;;;;7.63;4.10;;;;;;;;;;4990493;28;20038;-61
2021/07/29 09:05:21;;;;;;;5.75;4.20;;;;;;;;;;5008707;28;20404;-61
2021/07/29 09:08:08;;;;;;;6.43;4.10;;;;;;;;;;5008704;28;20033;-61
2021/07/29 09:10:39;;;;;;;7.70;4.03;;;;;;;;;;5008131;28;20029;-61
2021/07/29 09:13:15;;;;;;;5.45;3.80;;;;;;;;;;5007966;28;20025;-61
2021/07/29 09:15:42;;;;;;;5.90;3.88;;;;;;;;;;5008458;28;20366;-60
2021/07/29 09:18:08;;;;;;;5.70;3.70;;;;;;;;;;5007931;28;20025;-60
2021/07/29 09:20:36;;;;;;;6.93;3.85;;;;;;;;;;4991785;28;20028;-60
2021/07/29 09:23:21;;;;;;;5.35;4.07;;;;;;;;;;4990832;28;20022;-61
2021/07/29 09:26:00;;;;;;;6.32;3.72;;;;;;;;;;5008530;28;20508;-61
2021/07/29 09:28:39;;;;;;;6.20;4.15;;;;;;;;;;5006917;28;20180;-60
2021/07/29 09:31:22;;;;;;;6.75;4.07;;;;;;;;;;5007931;28;20049;-60
2021/07/29 09:33:59;;;;;;;5.35;3.95;;;;;;;;;;5009648;28;20508;-61
2021/07/29 09:36:25;;;;;;;5.15;3.58;;;;;;;;;;5008089;28;20030;-61
2021/07/29 09:38:50;;;;;;;6.03;4.30;;;;;;;;;;5007271;28;20033;-61
2021/07/29 09:41:27;;;;;;;6.30;3.72;;;;;;;;;;5007689;28;20034;-61
2021/07/29 09:43:54;;;;;;;8.63;3.72;;;;;;;;;;5007731;28;20386;-61
2021/07/29 09:46:21;;;;;;;5.43;3.90;;;;;;;;;;5009199;28;20047;-61
2021/07/29 09:48:48;;;;;;;4.35;3.25;;;;;;;;;;5007285;28;20128;-61
2021/07/29 09:51:15;;;;;;;5.10;3.38;;;;;;;;;;5007587;28;20530;-61
2021/07/29 09:53:41;;;;;;;8.25;4.72;;;;;;;;;;5008138;28;20484;-61
2021/07/29 09:56:08;;;;;;;6.13;4.05;;;;;;;;;;5007879;28;20030;-61
2021/07/29 09:58:39;;;;;;;5.85;3.95;;;;;;;;;;5007922;28;20100;-61
2021/07/29 10:01:05;;;;;;;7.60;4.18;;;;;;;;;;5007622;28;20053;-62
2021/07/29 10:03:43;;;;;;;4.97;4.15;;;;;;;;;;4990981;28;20030;-61
2021/07/29 10:06:15;;;;;;;7.63;4.13;;;;;;;;;;5007134;28;20034;-61
2021/07/29 10:09:03;;;;;;;10.02;4.10;;;;;;;;;;4989395;28;20087;-60
2021/07/29 10:11:32;;;;;;;5.40;3.90;;;;;;;;;;5004536;28;20293;-60
2021/07/29 10:13:58;;;;;;;6.32;4.30;;;;;;;;;;5006684;28;20497;-60
2021/07/29 10:16:42;;;;;;;6.32;3.92;;;;;;;;;;5005791;28;20045;-60
2021/07/29 10:19:07;;;;;;;7.10;4.32;;;;;;;;;;5006650;28;20022;-60
2021/07/29 10:21:36;;;;;;;5.28;3.88;;;;;;;;;;5007166;28;20970;-60
2021/07/29 10:24:04;;;;;;;6.63;4.22;;;;;;;;;;5007582;28;20030;-61
2021/07/29 10:26:31;;;;;;;6.07;3.97;;;;;;;;;;5007209;28;20030;-61
2021/07/29 10:29:19;;;;;;;7.70;4.03;;;;;;;;;;5007898;28;20026;-61
2021/07/29 10:31:55;;;;;;;4.30;3.90;;;;;;;;;;5007943;28;20033;-60
2021/07/29 10:34:30;;;;;;;8.32;4.00;;;;;;;;;;4991321;28;20037;-61
2021/07/29 10:36:59;;;;;;;8.07;4.55;;;;;;;;;;5006399;28;20028;-61
2021/07/29 10:39:26;;;;;;;8.70;4.15;;;;;;;;;;5008162;28;20432;-61
2021/07/29 10:41:53;;;;;;;5.07;3.83;;;;;;;;;;5011126;28;20084;-61
2021/07/29 10:44:34;;;;;;;4.95;3.80;;;;;;;;;;5012244;28;20136;-62
2021/07/29 10:47:03;;;;;;;4.85;3.90;;;;;;;;;;5012636;28;20034;-61
2021/07/29 10:49:44;;;;;;;6.07;4.70;;;;;;;;;;4993620;28;20058;-61
2021/07/29 10:52:11;;;;;;;4.88;4.22;;;;;;;;;;5011923;28;20029;-61
2021/07/29 10:54:38;;;;;;;6.65;3.88;;;;;;;;;;5011262;28;20026;-61
2021/07/29 10:57:05;;;;;;;6.35;4.07;;;;;;;;;;5010271;28;20029;-61
2021/07/29 10:59:34;;;;;;;5.38;3.90;;;;;;;;;;5011063;28;20041;-61
2021/07/29 11:02:06;;;;;;;;;;;;;;;;;;5011538;28;20400;-61
2021/07/29 11:04:50;;;;;;;5.03;3.97;;;;;;;;;;5026361;28;19913;-61
2021/07/29 11:07:16;;;;;;;9.60;4.70;;;;;;;;;;5009682;28;20457;-61
2021/07/29 11:09:41;;;;;;;5.38;4.20;;;;;;;;;;4992435;28;20049;-61
2021/07/29 11:12:12;;;;;;;5.53;4.30;;;;;;;;;;4993756;28;20018;-61
2021/07/29 11:14:39;;;;;;;5.47;3.80;;;;;;;;;;5010499;28;20034;-62
2021/07/29 11:17:04;;;;;;;7.80;4.47;;;;;;;;;;5010867;28;20125;-61
2021/07/29 11:19:46;;;;;;;6.38;4.50;;;;;;;;;;5009842;28;20112;-60
2021/07/29 11:22:12;;;;;;;4.95;4.28;;;;;;;;;;5004814;28;20057;-60
2021/07/29 11:24:38;;;;;;;5.45;4.28;;;;;;;;;;5012252;28;20548;-60
2021/07/29 11:27:07;;;;;;;6.65;4.40;;;;;;;;;;5010997;28;20029;-60
2021/07/29 11:29:33;;;;;;;7.32;4.18;;;;;;;;;;5010602;28;20496;-60
2021/07/29 11:31:59;;;;;;;6.63;4.22;;;;;;;;;;5010504;28;20132;-61
2021/07/29 11:34:32;;;;;;;7.10;4.03;;;;;;;;;;5014886;28;20128;-61
2021/07/29 11:36:59;;;;;;;5.10;4.30;;;;;;;;;;5009661;28;20036;-61
2021/07/29 11:39:25;;;;;;;6.60;3.83;;;;;;;;;;5009574;28;20026;-61
2021/07/29 11:41:54;;;;;;;4.75;3.75;;;;;;;;;;5009292;28;20103;-63
2021/07/29 11:44:20;;;;;;;5.32;4.30;;;;;;;;;;5010201;28;20507;-63
2021/07/29 11:46:51;;;;;;;6.53;4.10;;;;;;;;;;4994013;28;20046;-61
2021/07/29 11:49:17;;;;;;;7.60;3.92;;;;;;;;;;5010166;28;20034;-61
2021/07/29 11:52:01;;;;;;;5.25;3.80;;;;;;;;;;5010276;28;20112;-61
2021/07/29 11:54:26;;;;;;;6.93;4.22;;;;;;;;;;4996096;28;20034;-61
2021/07/29 11:56:51;;;;;;;5.95;4.32;;;;;;;;;;5009792;28;20043;-61
2021/07/29 11:59:17;;;;;;;6.47;4.55;;;;;;;;;;5008851;28;20109;-61
2021/07/29 12:01:49;;;;;;;4.38;3.97;;;;;;;;;;5009739;28;20056;-60
2021/07/29 12:04:16;;;;;;;5.82;4.20;;;;;;;;;;5009725;28;20488;-60
2021/07/29 12:06:42;;;;;;;5.05;4.18;;;;;;;;;;4976015;28;20401;-61
2021/07/29 12:09:08;;;;;;;8.30;4.18;;;;;;;;;;4992289;28;20036;-61
2021/07/29 12:11:34;;;;;;;7.45;4.40;;;;;;;;;;4992408;28;20445;-61
2021/07/29 12:14:00;;;;;;;6.38;4.25;;;;;;;;;;4994003;28;20033;-61
2021/07/29 12:16:45;;;;;;;5.55;4.20;;;;;;;;;;5009427;28;20196;-61
2021/07/29 12:19:11;;;;;;;6.10;4.15;;;;;;;;;;5008836;28;20506;-61
2021/07/29 12:21:36;;;;;;;6.15;4.00;;;;;;;;;;5009143;28;20034;-61
2021/07/29 12:24:02;;;;;;;5.00;4.10;;;;;;;;;;5022915;28;20030;-61
2021/07/29 12:26:27;;;;;;;5.60;3.92;;;;;;;;;;5009594;28;20034;-60
2021/07/29 12:28:53;;;;;;;6.25;4.63;;;;;;;;;;5008170;28;20536;-61
2021/07/29 12:31:24;;;;;;;6.25;5.25;;;;;;;;;;5009148;28;20079;-60
2021/07/29 12:33:59;;;;;;;5.13;4.22;;;;;;;;;;5009293;28;20034;-61
2021/07/29 12:36:40;;;;;;;7.15;5.68;;;;;;;;;;5009001;28;20069;-61
2021/07/29 12:39:06;;;;;;;5.07;4.47;;;;;;;;;;5002799;28;20079;-61
2021/07/29 12:41:37;;;;;;;5.03;4.50;;;;;;;;;;5007672;28;20148;-62
2021/07/29 12:44:19;;;;;;;6.85;4.05;;;;;;;;;;5007163;28;20076;-62
2021/07/29 12:46:46;;;;;;;5.57;4.13;;;;;;;;;;5007552;28;20030;-62
2021/07/29 12:49:17;;;;;;;5.05;4.22;;;;;;;;;;4991031;28;20121;-62
2021/07/29 12:51:46;;;;;;;5.47;3.95;;;;;;;;;;5009737;28;20108;-61
2021/07/29 12:54:16;;;;;;;4.43;4.03;;;;;;;;;;5010213;28;20108;-62
2021/07/29 12:56:42;;;;;;;6.43;4.10;;;;;;;;;;5008722;28;20089;-61
2021/07/29 12:59:09;;;;;;;8.15;4.22;;;;;;;;;;5007425;28;20054;-61
2021/07/29 13:01:36;;;;;;;4.65;4.05;;;;;;;;;;5006655;28;20072;-61
2021/07/29 13:04:03;;;;;;;4.70;4.20;;;;;;;;;;4997139;28;20049;-61
2021/07/29 13:06:28;;;;;;;6.30;4.40;;;;;;;;;;5008438;28;20038;-61
2021/07/29 13:08:54;;;;;;;9.30;4.43;;;;;;;;;;5007788;28;20029;-61
2021/07/29 13:11:20;;;;;;;7.10;4.13;;;;;;;;;;5009525;28;20030;-63
2021/07/29 13:13:46;;;;;;;5.57;4.45;;;;;;;;;;5007814;28;20022;-62
2021/07/29 13:16:11;;;;;;;5.10;4.55;;;;;;;;;;5009948;28;20092;-63
2021/07/29 13:18:37;;;;;;;5.10;4.00;;;;;;;;;;5008356;28;20408;-63
2021/07/29 13:21:04;;;;;;;5.32;4.10;;;;;;;;;;5007526;28;20029;-63
2021/07/29 13:23:31;;;;;;;8.48;4.25;;;;;;;;;;5008152;28;20121;-63
2021/07/29 13:25:57;;;;;;;5.68;4.25;;;;;;;;;;5008800;28;20029;-63
2021/07/29 13:28:24;;;;;;;6.13;4.50;;;;;;;;;;5006810;28;20400;-61
2021/07/29 13:30:50;;;;;;;5.13;4.40;;;;;;;;;;5008171;28;20537;-62
2021/07/29 13:33:16;;;;;;;6.68;4.25;;;;;;;;;;5011220;28;20112;-62
2021/07/29 13:35:42;;;;;;;5.57;4.70;;;;;;;;;;4992632;28;20109;-62
2021/07/29 13:38:08;;;;;;;6.72;4.32;;;;;;;;;;5007527;28;20505;-62
2021/07/29 13:40:34;;;;;;;5.45;4.45;;;;;;;;;;5007195;28;20068;-62
2021/07/29 13:43:00;;;;;;;5.90;4.38;;;;;;;;;;5007122;28;20508;-63
2021/07/29 13:45:26;;;;;;;5.93;4.38;;;;;;;;;;5009319;28;20029;-62
2021/07/29 13:47:58;;;;;;;5.85;5.15;;;;;;;;;;5008364;28;20030;-61
2021/07/29 13:50:29;;;;;;;6.32;5.00;;;;;;;;;;5007953;28;20026;-62
2021/07/29 13:52:55;;;;;;;7.05;5.30;;;;;;;;;;5008702;28;20025;-62
2021/07/29 13:55:21;;;;;;;6.15;4.82;;;;;;;;;;5008825;28;20029;-62
2021/07/29 13:57:47;;;;;;;5.45;4.53;;;;;;;;;;5007537;28;20065;-61
2021/07/29 14:00:15;;;;;;;7.10;4.75;;;;;;;;;;5007654;28;20412;-62
2021/07/29 14:02:41;;;;;;;6.38;5.05;;;;;;;;;;5007208;28;20052;-63
2021/07/29 14:05:08;;;;;;;5.93;5.00;;;;;;;;;;5008254;28;20037;-63
2021/07/29 14:07:34;;;;;;;4.72;4.25;;;;;;;;;;5006837;28;20038;-62
2021/07/29 14:10:00;;;;;;;5.80;4.70;;;;;;;;;;5006902;28;20451;-61
2021/07/29 14:12:27;;;;;;;6.40;4.93;;;;;;;;;;5006404;28;20113;-61
2021/07/29 14:14:53;;;;;;;5.43;4.57;;;;;;;;;;5006841;28;20088;-60
2021/07/29 14:17:27;;;;;;;7.22;4.88;;;;;;;;;;5007508;28;20437;-62
2021/07/29 14:25:09;;;;;;;5.70;4.57;;;;;;;;;;5009268;28;20045;-62
2021/07/29 14:27:35;;;;;;;6.75;4.90;;;;;;;;;;5007422;28;20041;-62
2021/07/29 14:30:01;;;;;;;6.20;4.60;;;;;;;;;;4990530;28;20034;-62
2021/07/29 14:32:27;;;;;;;6.30;5.20;;;;;;;;;;4974672;28;20408;-62
2021/07/29 14:34:52;;;;;;;7.10;5.15;;;;;;;;;;5007876;28;20026;-63
2021/07/29 14:37:17;;;;;;;7.22;5.60;;;;;;;;;;5007872;28;20242;-62
2021/07/29 14:39:43;;;;;;;7.05;5.20;;;;;;;;;;4990539;28;20040;-63
2021/07/29 14:42:08;;;;;;;10.95;8.30;;;;;;;;;;4990418;28;20499;-62
2021/07/29 14:44:37;;;;;;;6.97;5.10;;;;;;;;;;5006894;28;20026;-63
2021/07/29 14:49:57;;;;;;;8.30;4.72;;;;;;;;;;5009776;28;19920;-63
2021/07/29 14:52:23;;;;;;;6.38;4.88;;;;;;;;;;5006949;28;20030;-63